sensor_id;sensor_type;location;lat;lon;timestamp;temperature;humidity
23683;DHT22;24897;53.514;10.482;2023-05-16T00:00:00;11.10;99.90
23683;DHT22;24897;53.514;10.482;2023-05-16T00:02:44;11.10;99.90
23683;DHT22;24897;53.514;10.482;2023-05-16T00:05:28;11.00;99.90
23683;DHT22;24897;53.514;10.482;2023-05-16T00:08:12;10.90;99.90
23683;DHT22;24897;53.514;10.482;2023-05-16T00:10:56;11.00;99.90
23683;DHT22;24897;53.514;10.482;2023-05-16T00:13:40;11.10;99.90
23683;DHT22;24897;53.514;10.482;2023-05-16T00:16:26;11.20;99.90
23683;DHT22;24897;53.514;10.482;2023-05-16T00:19:12;11.30;99.90
23683;DHT22;24897;53.514;10.482;2023-05-16T00:21:57;11.30;99.90
23683;DHT22;24897;53.514;10.482;2023-05-16T00:24:42;11.20;99.90
23683;DHT22;24897;53.514;10.482;2023-05-16T00:27:26;11.20;99.90
23683;DHT22;24897;53.514;10.482;2023-05-16T00:30:10;11.20;99.90
23683;DHT22;24897;53.514;10.482;2023-05-16T00:32:55;11.20;99.90
23683;DHT22;24897;53.514;10.482;2023-05-16T00:35:39;11.20;99.90
23683;DHT22;24897;53.514;10.482;2023-05-16T00:38:24;11.20;99.90
23683;DHT22;24897;53.514;10.482;2023-05-16T00:41:09;11.20;99.90
23683;DHT22;24897;53.514;10.482;2023-05-16T00:43:53;11.30;99.90
23683;DHT22;24897;53.514;10.482;2023-05-16T00:46:37;11.30;99.90
23683;DHT22;24897;53.514;10.482;2023-05-16T00:49:22;11.30;99.90
23683;DHT22;24897;53.514;10.482;2023-05-16T00:52:06;11.30;99.90
23683;DHT22;24897;53.514;10.482;2023-05-16T00:54:51;11.40;99.90
23683;DHT22;24897;53.514;10.482;2023-05-16T00:57:36;11.40;99.90
23683;DHT22;24897;53.514;10.482;2023-05-16T01:00:21;11.30;99.90
23683;DHT22;24897;53.514;10.482;2023-05-16T01:03:05;11.30;99.90
23683;DHT22;24897;53.514;10.482;2023-05-16T01:05:50;11.40;99.90
23683;DHT22;24897;53.514;10.482;2023-05-16T01:08:34;11.50;99.90
23683;DHT22;24897;53.514;10.482;2023-05-16T01:11:52;11.40;99.90
23683;DHT22;24897;53.514;10.482;2023-05-16T01:18:11;11.40;99.90
23683;DHT22;24897;53.514;10.482;2023-05-16T01:21:00;11.30;99.90
23683;DHT22;24897;53.514;10.482;2023-05-16T01:24:02;11.30;99.90
23683;DHT22;24897;53.514;10.482;2023-05-16T01:26:47;11.40;99.90
23683;DHT22;24897;53.514;10.482;2023-05-16T01:29:32;11.40;99.90
23683;DHT22;24897;53.514;10.482;2023-05-16T01:32:16;11.30;99.90
23683;DHT22;24897;53.514;10.482;2023-05-16T01:35:00;11.30;99.90
23683;DHT22;24897;53.514;10.482;2023-05-16T01:37:49;11.50;99.90
23683;DHT22;24897;53.514;10.482;2023-05-16T01:43:42;11.50;99.90
23683;DHT22;24897;53.514;10.482;2023-05-16T01:46:27;11.40;99.90
23683;DHT22;24897;53.514;10.482;2023-05-16T01:49:28;11.60;99.90
23683;DHT22;24897;53.514;10.482;2023-05-16T01:52:27;11.60;99.90
23683;DHT22;24897;53.514;10.482;2023-05-16T01:55:18;11.60;99.90
23683;DHT22;24897;53.514;10.482;2023-05-16T01:58:04;11.60;99.90
23683;DHT22;24897;53.514;10.482;2023-05-16T02:00:59;11.60;99.90
23683;DHT22;24897;53.514;10.482;2023-05-16T02:03:43;11.60;99.90
23683;DHT22;24897;53.514;10.482;2023-05-16T02:06:27;11.50;99.90
23683;DHT22;24897;53.514;10.482;2023-05-16T02:09:12;11.50;99.90
23683;DHT22;24897;53.514;10.482;2023-05-16T02:11:56;11.40;99.90
23683;DHT22;24897;53.514;10.482;2023-05-16T02:14:40;11.40;99.90
23683;DHT22;24897;53.514;10.482;2023-05-16T02:17:24;11.40;99.90
23683;DHT22;24897;53.514;10.482;2023-05-16T02:20:09;11.60;99.90
23683;DHT22;24897;53.514;10.482;2023-05-16T02:22:53;11.50;99.90
23683;DHT22;24897;53.514;10.482;2023-05-16T02:25:39;11.50;99.90
23683;DHT22;24897;53.514;10.482;2023-05-16T02:28:22;11.50;99.90
23683;DHT22;24897;53.514;10.482;2023-05-16T02:31:07;11.50;99.90
23683;DHT22;24897;53.514;10.482;2023-05-16T02:33:52;11.50;99.90
23683;DHT22;24897;53.514;10.482;2023-05-16T02:36:36;11.50;99.90
23683;DHT22;24897;53.514;10.482;2023-05-16T02:39:20;11.30;99.90
23683;DHT22;24897;53.514;10.482;2023-05-16T02:42:06;11.40;99.90
23683;DHT22;24897;53.514;10.482;2023-05-16T02:44:50;11.50;99.90
23683;DHT22;24897;53.514;10.482;2023-05-16T02:47:34;11.60;99.90
23683;DHT22;24897;53.514;10.482;2023-05-16T02:50:21;11.50;99.90
23683;DHT22;24897;53.514;10.482;2023-05-16T02:53:05;11.50;99.90
23683;DHT22;24897;53.514;10.482;2023-05-16T02:55:50;11.50;99.90
23683;DHT22;24897;53.514;10.482;2023-05-16T02:58:34;11.60;99.90
23683;DHT22;24897;53.514;10.482;2023-05-16T03:01:18;11.60;99.90
23683;DHT22;24897;53.514;10.482;2023-05-16T03:04:02;11.50;99.90
23683;DHT22;24897;53.514;10.482;2023-05-16T03:06:46;11.60;99.90
23683;DHT22;24897;53.514;10.482;2023-05-16T03:09:30;11.60;99.90
23683;DHT22;24897;53.514;10.482;2023-05-16T03:12:14;11.60;99.90
23683;DHT22;24897;53.514;10.482;2023-05-16T03:14:58;11.70;99.90
23683;DHT22;24897;53.514;10.482;2023-05-16T03:17:42;11.70;99.90
23683;DHT22;24897;53.514;10.482;2023-05-16T03:20:26;11.70;99.90
23683;DHT22;24897;53.514;10.482;2023-05-16T03:23:10;11.70;99.90
23683;DHT22;24897;53.514;10.482;2023-05-16T03:25:55;11.70;99.90
23683;DHT22;24897;53.514;10.482;2023-05-16T03:28:39;11.80;99.90
23683;DHT22;24897;53.514;10.482;2023-05-16T03:31:23;11.60;99.90
23683;DHT22;24897;53.514;10.482;2023-05-16T03:34:07;11.50;99.90
23683;DHT22;24897;53.514;10.482;2023-05-16T03:36:52;11.60;99.90
23683;DHT22;24897;53.514;10.482;2023-05-16T03:39:36;11.60;99.90
23683;DHT22;24897;53.514;10.482;2023-05-16T03:42:20;11.50;99.90
23683;DHT22;24897;53.514;10.482;2023-05-16T03:45:04;11.50;99.90
23683;DHT22;24897;53.514;10.482;2023-05-16T03:47:49;11.50;99.90
23683;DHT22;24897;53.514;10.482;2023-05-16T03:50:33;11.50;99.90
23683;DHT22;24897;53.514;10.482;2023-05-16T03:53:20;11.50;99.90
23683;DHT22;24897;53.514;10.482;2023-05-16T03:56:04;11.40;99.90
23683;DHT22;24897;53.514;10.482;2023-05-16T03:58:49;11.40;99.90
23683;DHT22;24897;53.514;10.482;2023-05-16T04:01:33;11.40;99.90
23683;DHT22;24897;53.514;10.482;2023-05-16T04:04:17;11.40;99.90
23683;DHT22;24897;53.514;10.482;2023-05-16T04:07:01;11.40;99.90
23683;DHT22;24897;53.514;10.482;2023-05-16T04:09:46;11.30;99.90
23683;DHT22;24897;53.514;10.482;2023-05-16T04:12:30;11.30;99.90
23683;DHT22;24897;53.514;10.482;2023-05-16T04:15:16;11.40;99.90
23683;DHT22;24897;53.514;10.482;2023-05-16T04:18:01;11.20;99.90
23683;DHT22;24897;53.514;10.482;2023-05-16T04:20:46;11.00;99.90
23683;DHT22;24897;53.514;10.482;2023-05-16T04:23:30;11.10;99.90
23683;DHT22;24897;53.514;10.482;2023-05-16T04:26:14;11.10;99.90
23683;DHT22;24897;53.514;10.482;2023-05-16T04:28:58;11.20;99.90
23683;DHT22;24897;53.514;10.482;2023-05-16T04:31:42;11.20;99.90
23683;DHT22;24897;53.514;10.482;2023-05-16T04:34:27;11.00;99.90
23683;DHT22;24897;53.514;10.482;2023-05-16T04:37:11;11.10;99.90
23683;DHT22;24897;53.514;10.482;2023-05-16T04:39:55;11.10;99.90
23683;DHT22;24897;53.514;10.482;2023-05-16T04:42:40;10.90;99.90
23683;DHT22;24897;53.514;10.482;2023-05-16T04:45:24;11.00;99.90
23683;DHT22;24897;53.514;10.482;2023-05-16T04:48:09;10.90;99.90
23683;DHT22;24897;53.514;10.482;2023-05-16T04:50:55;11.00;99.90
23683;DHT22;24897;53.514;10.482;2023-05-16T04:53:39;11.10;99.90
23683;DHT22;24897;53.514;10.482;2023-05-16T04:56:24;11.10;99.90
23683;DHT22;24897;53.514;10.482;2023-05-16T04:59:09;11.10;99.90
23683;DHT22;24897;53.514;10.482;2023-05-16T05:01:53;10.90;99.90
23683;DHT22;24897;53.514;10.482;2023-05-16T05:04:37;11.00;99.90
23683;DHT22;24897;53.514;10.482;2023-05-16T05:07:21;11.00;99.90
23683;DHT22;24897;53.514;10.482;2023-05-16T05:10:06;11.00;99.90
23683;DHT22;24897;53.514;10.482;2023-05-16T05:12:51;11.00;99.90
23683;DHT22;24897;53.514;10.482;2023-05-16T05:15:35;11.00;99.90
23683;DHT22;24897;53.514;10.482;2023-05-16T05:18:19;11.10;99.90
23683;DHT22;24897;53.514;10.482;2023-05-16T05:21:04;11.20;99.90
23683;DHT22;24897;53.514;10.482;2023-05-16T05:23:48;11.40;99.90
23683;DHT22;24897;53.514;10.482;2023-05-16T05:26:32;11.60;99.90
23683;DHT22;24897;53.514;10.482;2023-05-16T05:29:17;11.70;99.90
23683;DHT22;24897;53.514;10.482;2023-05-16T05:32:01;11.70;99.90
23683;DHT22;24897;53.514;10.482;2023-05-16T05:34:45;11.70;99.90
23683;DHT22;24897;53.514;10.482;2023-05-16T05:37:29;11.60;99.90
23683;DHT22;24897;53.514;10.482;2023-05-16T05:40:14;11.40;99.90
23683;DHT22;24897;53.514;10.482;2023-05-16T05:42:59;11.50;99.90
23683;DHT22;24897;53.514;10.482;2023-05-16T05:45:43;11.70;99.90
23683;DHT22;24897;53.514;10.482;2023-05-16T05:48:27;12.40;99.90
23683;DHT22;24897;53.514;10.482;2023-05-16T05:51:12;13.20;99.90
23683;DHT22;24897;53.514;10.482;2023-05-16T05:53:57;13.30;99.90
23683;DHT22;24897;53.514;10.482;2023-05-16T05:56:41;13.20;99.90
23683;DHT22;24897;53.514;10.482;2023-05-16T05:59:25;13.30;99.90
23683;DHT22;24897;53.514;10.482;2023-05-16T06:02:10;13.70;99.90
23683;DHT22;24897;53.514;10.482;2023-05-16T06:04:54;13.70;99.90
23683;DHT22;24897;53.514;10.482;2023-05-16T06:07:38;13.50;99.90
23683;DHT22;24897;53.514;10.482;2023-05-16T06:10:22;13.60;99.90
23683;DHT22;24897;53.514;10.482;2023-05-16T06:13:06;13.60;99.90
23683;DHT22;24897;53.514;10.482;2023-05-16T06:15:51;14.50;99.90
23683;DHT22;24897;53.514;10.482;2023-05-16T06:18:36;15.30;99.90
23683;DHT22;24897;53.514;10.482;2023-05-16T06:21:23;15.30;99.90
23683;DHT22;24897;53.514;10.482;2023-05-16T06:24:08;15.60;99.90
23683;DHT22;24897;53.514;10.482;2023-05-16T06:26:53;16.00;99.90
23683;DHT22;24897;53.514;10.482;2023-05-16T06:29:37;15.90;99.90
23683;DHT22;24897;53.514;10.482;2023-05-16T06:32:21;15.40;99.90
23683;DHT22;24897;53.514;10.482;2023-05-16T06:35:06;14.60;99.90
23683;DHT22;24897;53.514;10.482;2023-05-16T06:37:51;13.90;99.90
23683;DHT22;24897;53.514;10.482;2023-05-16T06:40:35;14.50;99.90
23683;DHT22;24897;53.514;10.482;2023-05-16T06:43:20;15.10;99.90
23683;DHT22;24897;53.514;10.482;2023-05-16T06:46:04;14.30;99.90
23683;DHT22;24897;53.514;10.482;2023-05-16T06:48:49;14.30;99.90
23683;DHT22;24897;53.514;10.482;2023-05-16T06:51:33;14.30;99.90
23683;DHT22;24897;53.514;10.482;2023-05-16T06:54:17;14.40;99.90
23683;DHT22;24897;53.514;10.482;2023-05-16T06:57:01;14.60;99.90
23683;DHT22;24897;53.514;10.482;2023-05-16T06:59:47;15.10;99.90
23683;DHT22;24897;53.514;10.482;2023-05-16T07:02:31;16.10;99.90
23683;DHT22;24897;53.514;10.482;2023-05-16T07:05:15;16.90;99.90
23683;DHT22;24897;53.514;10.482;2023-05-16T07:07:59;17.20;99.90
23683;DHT22;24897;53.514;10.482;2023-05-16T07:10:43;17.00;99.90
23683;DHT22;24897;53.514;10.482;2023-05-16T07:13:27;15.50;99.90
23683;DHT22;24897;53.514;10.482;2023-05-16T07:16:12;15.20;99.90
23683;DHT22;24897;53.514;10.482;2023-05-16T07:18:56;15.70;99.90
23683;DHT22;24897;53.514;10.482;2023-05-16T07:21:40;15.50;99.90
23683;DHT22;24897;53.514;10.482;2023-05-16T07:24:24;16.30;99.90
23683;DHT22;24897;53.514;10.482;2023-05-16T07:27:09;16.80;99.90
23683;DHT22;24897;53.514;10.482;2023-05-16T07:29:53;17.50;99.90
23683;DHT22;24897;53.514;10.482;2023-05-16T07:32:37;16.50;99.90
23683;DHT22;24897;53.514;10.482;2023-05-16T07:35:21;16.00;99.90
23683;DHT22;24897;53.514;10.482;2023-05-16T07:38:05;16.50;99.90
23683;DHT22;24897;53.514;10.482;2023-05-16T07:40:49;16.80;99.90
23683;DHT22;24897;53.514;10.482;2023-05-16T07:43:34;15.70;99.90
23683;DHT22;24897;53.514;10.482;2023-05-16T07:46:18;14.80;99.90
23683;DHT22;24897;53.514;10.482;2023-05-16T07:49:02;14.10;99.90
23683;DHT22;24897;53.514;10.482;2023-05-16T07:51:46;14.10;99.90
23683;DHT22;24897;53.514;10.482;2023-05-16T07:54:33;14.20;99.90
23683;DHT22;24897;53.514;10.482;2023-05-16T07:57:17;14.80;99.90
23683;DHT22;24897;53.514;10.482;2023-05-16T08:00:02;15.10;99.90
23683;DHT22;24897;53.514;10.482;2023-05-16T08:02:47;14.90;99.90
23683;DHT22;24897;53.514;10.482;2023-05-16T08:05:31;14.50;99.90
23683;DHT22;24897;53.514;10.482;2023-05-16T08:08:15;14.10;99.90
23683;DHT22;24897;53.514;10.482;2023-05-16T08:10:59;13.60;99.90
23683;DHT22;24897;53.514;10.482;2023-05-16T08:13:44;14.20;99.90
23683;DHT22;24897;53.514;10.482;2023-05-16T08:16:28;15.10;99.90
23683;DHT22;24897;53.514;10.482;2023-05-16T08:19:16;15.70;99.90
23683;DHT22;24897;53.514;10.482;2023-05-16T08:22:00;15.30;99.90
23683;DHT22;24897;53.514;10.482;2023-05-16T08:24:45;14.80;99.90
23683;DHT22;24897;53.514;10.482;2023-05-16T08:27:29;15.00;99.90
23683;DHT22;24897;53.514;10.482;2023-05-16T08:30:14;14.40;99.90
23683;DHT22;24897;53.514;10.482;2023-05-16T08:32:58;15.00;99.90
23683;DHT22;24897;53.514;10.482;2023-05-16T08:35:43;15.20;99.90
23683;DHT22;24897;53.514;10.482;2023-05-16T08:38:27;15.10;99.90
23683;DHT22;24897;53.514;10.482;2023-05-16T08:41:11;15.10;99.90
23683;DHT22;24897;53.514;10.482;2023-05-16T08:43:56;15.30;99.90
23683;DHT22;24897;53.514;10.482;2023-05-16T08:46:40;15.80;99.90
23683;DHT22;24897;53.514;10.482;2023-05-16T08:49:26;15.90;99.90
23683;DHT22;24897;53.514;10.482;2023-05-16T08:52:12;16.10;99.90
23683;DHT22;24897;53.514;10.482;2023-05-16T08:55:02;16.70;99.90
23683;DHT22;24897;53.514;10.482;2023-05-16T08:57:49;16.60;99.90
23683;DHT22;24897;53.514;10.482;2023-05-16T09:00:34;16.20;99.90
23683;DHT22;24897;53.514;10.482;2023-05-16T09:03:19;16.20;99.90
23683;DHT22;24897;53.514;10.482;2023-05-16T09:06:04;16.20;99.90
23683;DHT22;24897;53.514;10.482;2023-05-16T09:08:49;15.80;99.90
23683;DHT22;24897;53.514;10.482;2023-05-16T09:11:34;15.60;99.90
23683;DHT22;24897;53.514;10.482;2023-05-16T09:14:18;15.50;99.90
23683;DHT22;24897;53.514;10.482;2023-05-16T09:17:06;15.70;99.90
23683;DHT22;24897;53.514;10.482;2023-05-16T09:19:51;16.00;99.90
23683;DHT22;24897;53.514;10.482;2023-05-16T09:22:49;15.40;99.90
23683;DHT22;24897;53.514;10.482;2023-05-16T09:25:34;15.00;99.90
23683;DHT22;24897;53.514;10.482;2023-05-16T09:28:19;15.50;99.90
23683;DHT22;24897;53.514;10.482;2023-05-16T09:31:04;15.90;99.90
23683;DHT22;24897;53.514;10.482;2023-05-16T09:34:06;16.30;99.90
23683;DHT22;24897;53.514;10.482;2023-05-16T09:36:53;16.60;99.90
23683;DHT22;24897;53.514;10.482;2023-05-16T09:39:44;16.40;99.90
23683;DHT22;24897;53.514;10.482;2023-05-16T09:42:30;16.00;99.90
23683;DHT22;24897;53.514;10.482;2023-05-16T09:45:16;15.70;99.90
23683;DHT22;24897;53.514;10.482;2023-05-16T09:48:05;15.80;99.90
23683;DHT22;24897;53.514;10.482;2023-05-16T09:50:51;16.10;99.90
23683;DHT22;24897;53.514;10.482;2023-05-16T09:53:37;16.40;99.90
23683;DHT22;24897;53.514;10.482;2023-05-16T09:56:21;16.40;99.90
23683;DHT22;24897;53.514;10.482;2023-05-16T09:59:09;16.00;99.90
23683;DHT22;24897;53.514;10.482;2023-05-16T10:01:57;16.40;99.90
23683;DHT22;24897;53.514;10.482;2023-05-16T10:04:45;16.40;99.90
23683;DHT22;24897;53.514;10.482;2023-05-16T10:07:30;16.40;99.90
23683;DHT22;24897;53.514;10.482;2023-05-16T10:10:18;16.40;99.90
23683;DHT22;24897;53.514;10.482;2023-05-16T10:13:04;16.80;99.90
23683;DHT22;24897;53.514;10.482;2023-05-16T10:15:50;17.60;99.90
23683;DHT22;24897;53.514;10.482;2023-05-16T10:18:38;17.60;99.90
23683;DHT22;24897;53.514;10.482;2023-05-16T10:21:24;17.50;99.90
23683;DHT22;24897;53.514;10.482;2023-05-16T10:24:13;17.20;99.90
23683;DHT22;24897;53.514;10.482;2023-05-16T10:27:01;17.10;99.90
23683;DHT22;24897;53.514;10.482;2023-05-16T10:29:47;17.60;99.90
23683;DHT22;24897;53.514;10.482;2023-05-16T10:32:32;17.90;99.90
23683;DHT22;24897;53.514;10.482;2023-05-16T10:35:17;18.40;99.90
23683;DHT22;24897;53.514;10.482;2023-05-16T10:38:02;18.20;99.90
23683;DHT22;24897;53.514;10.482;2023-05-16T10:40:46;18.70;99.90
23683;DHT22;24897;53.514;10.482;2023-05-16T10:43:31;18.90;99.90
23683;DHT22;24897;53.514;10.482;2023-05-16T10:46:16;17.80;99.90
23683;DHT22;24897;53.514;10.482;2023-05-16T10:49:24;17.60;99.90
23683;DHT22;24897;53.514;10.482;2023-05-16T10:52:11;17.20;99.90
23683;DHT22;24897;53.514;10.482;2023-05-16T10:54:55;16.70;99.90
23683;DHT22;24897;53.514;10.482;2023-05-16T10:57:43;17.10;99.90
23683;DHT22;24897;53.514;10.482;2023-05-16T11:00:29;16.60;99.90
23683;DHT22;24897;53.514;10.482;2023-05-16T11:03:21;15.90;99.90
23683;DHT22;24897;53.514;10.482;2023-05-16T11:06:08;16.20;99.90
23683;DHT22;24897;53.514;10.482;2023-05-16T11:14:40;17.50;99.90
23683;DHT22;24897;53.514;10.482;2023-05-16T11:17:38;17.60;99.90
23683;DHT22;24897;53.514;10.482;2023-05-16T11:20:30;18.30;99.90
23683;DHT22;24897;53.514;10.482;2023-05-16T11:23:19;19.30;99.90
23683;DHT22;24897;53.514;10.482;2023-05-16T11:26:04;19.20;99.90
23683;DHT22;24897;53.514;10.482;2023-05-16T11:28:49;18.20;99.90
23683;DHT22;24897;53.514;10.482;2023-05-16T11:31:34;17.60;99.90
23683;DHT22;24897;53.514;10.482;2023-05-16T11:34:18;16.70;99.90
23683;DHT22;24897;53.514;10.482;2023-05-16T11:37:02;16.40;99.90
23683;DHT22;24897;53.514;10.482;2023-05-16T11:39:47;16.40;99.90
23683;DHT22;24897;53.514;10.482;2023-05-16T11:42:36;16.80;99.90
23683;DHT22;24897;53.514;10.482;2023-05-16T11:45:21;16.10;99.90
23683;DHT22;24897;53.514;10.482;2023-05-16T11:48:08;15.90;99.90
23683;DHT22;24897;53.514;10.482;2023-05-16T11:50:53;16.40;99.90
23683;DHT22;24897;53.514;10.482;2023-05-16T11:53:38;16.60;99.90
23683;DHT22;24897;53.514;10.482;2023-05-16T11:56:22;16.00;99.90
23683;DHT22;24897;53.514;10.482;2023-05-16T11:59:07;15.60;99.90
23683;DHT22;24897;53.514;10.482;2023-05-16T12:01:51;15.50;99.90
23683;DHT22;24897;53.514;10.482;2023-05-16T12:04:35;15.70;99.90
23683;DHT22;24897;53.514;10.482;2023-05-16T12:07:27;16.10;99.90
23683;DHT22;24897;53.514;10.482;2023-05-16T12:10:15;16.40;99.90
23683;DHT22;24897;53.514;10.482;2023-05-16T12:12:59;15.90;99.90
23683;DHT22;24897;53.514;10.482;2023-05-16T12:15:44;15.10;99.90
23683;DHT22;24897;53.514;10.482;2023-05-16T12:18:29;14.90;99.90
23683;DHT22;24897;53.514;10.482;2023-05-16T12:21:13;15.10;99.90
23683;DHT22;24897;53.514;10.482;2023-05-16T12:23:57;15.50;99.90
23683;DHT22;24897;53.514;10.482;2023-05-16T12:26:42;16.20;99.90
23683;DHT22;24897;53.514;10.482;2023-05-16T12:29:27;16.50;99.90
23683;DHT22;24897;53.514;10.482;2023-05-16T12:32:12;16.20;99.90
23683;DHT22;24897;53.514;10.482;2023-05-16T12:34:56;15.20;99.90
23683;DHT22;24897;53.514;10.482;2023-05-16T12:37:42;15.30;99.90
23683;DHT22;24897;53.514;10.482;2023-05-16T12:40:28;15.50;99.90
23683;DHT22;24897;53.514;10.482;2023-05-16T12:43:19;15.40;99.90
23683;DHT22;24897;53.514;10.482;2023-05-16T12:46:09;15.40;99.90
23683;DHT22;24897;53.514;10.482;2023-05-16T12:49:03;15.10;99.90
23683;DHT22;24897;53.514;10.482;2023-05-16T12:51:53;15.10;99.90
23683;DHT22;24897;53.514;10.482;2023-05-16T12:54:38;15.60;99.90
23683;DHT22;24897;53.514;10.482;2023-05-16T12:57:22;15.20;99.90
23683;DHT22;24897;53.514;10.482;2023-05-16T13:00:07;14.50;99.90
23683;DHT22;24897;53.514;10.482;2023-05-16T13:02:51;14.30;99.90
23683;DHT22;24897;53.514;10.482;2023-05-16T13:05:36;14.80;99.90
23683;DHT22;24897;53.514;10.482;2023-05-16T13:08:20;15.20;99.90
23683;DHT22;24897;53.514;10.482;2023-05-16T13:11:04;15.50;99.90
23683;DHT22;24897;53.514;10.482;2023-05-16T13:13:49;15.70;99.90
23683;DHT22;24897;53.514;10.482;2023-05-16T13:16:33;15.50;99.90
23683;DHT22;24897;53.514;10.482;2023-05-16T13:19:17;15.40;99.90
23683;DHT22;24897;53.514;10.482;2023-05-16T13:22:01;15.10;99.90
23683;DHT22;24897;53.514;10.482;2023-05-16T13:24:45;15.20;99.90
23683;DHT22;24897;53.514;10.482;2023-05-16T13:27:29;14.90;99.90
23683;DHT22;24897;53.514;10.482;2023-05-16T13:30:14;14.50;99.90
23683;DHT22;24897;53.514;10.482;2023-05-16T13:32:58;14.30;99.90
23683;DHT22;24897;53.514;10.482;2023-05-16T13:35:43;13.80;99.90
23683;DHT22;24897;53.514;10.482;2023-05-16T13:38:27;13.70;99.90
23683;DHT22;24897;53.514;10.482;2023-05-16T13:41:12;14.00;99.90
23683;DHT22;24897;53.514;10.482;2023-05-16T13:43:57;14.20;99.90
23683;DHT22;24897;53.514;10.482;2023-05-16T13:46:41;14.30;99.90
23683;DHT22;24897;53.514;10.482;2023-05-16T13:49:25;14.30;99.90
23683;DHT22;24897;53.514;10.482;2023-05-16T13:52:09;14.00;99.90
23683;DHT22;24897;53.514;10.482;2023-05-16T13:54:53;13.80;99.90
23683;DHT22;24897;53.514;10.482;2023-05-16T13:57:37;13.70;99.90
23683;DHT22;24897;53.514;10.482;2023-05-16T14:00:21;14.10;99.90
23683;DHT22;24897;53.514;10.482;2023-05-16T14:03:06;14.70;99.90
23683;DHT22;24897;53.514;10.482;2023-05-16T14:05:50;15.00;99.90
23683;DHT22;24897;53.514;10.482;2023-05-16T14:08:35;15.10;99.90
23683;DHT22;24897;53.514;10.482;2023-05-16T14:11:19;15.10;99.90
23683;DHT22;24897;53.514;10.482;2023-05-16T14:14:05;15.30;99.90
23683;DHT22;24897;53.514;10.482;2023-05-16T14:16:49;15.60;99.90
23683;DHT22;24897;53.514;10.482;2023-05-16T14:19:34;15.80;99.90
23683;DHT22;24897;53.514;10.482;2023-05-16T14:22:19;15.90;99.90
23683;DHT22;24897;53.514;10.482;2023-05-16T14:25:04;15.80;99.90
23683;DHT22;24897;53.514;10.482;2023-05-16T14:27:49;16.10;99.90
23683;DHT22;24897;53.514;10.482;2023-05-16T14:30:34;16.00;99.90
23683;DHT22;24897;53.514;10.482;2023-05-16T14:33:19;16.20;99.90
23683;DHT22;24897;53.514;10.482;2023-05-16T14:36:04;16.20;99.90
23683;DHT22;24897;53.514;10.482;2023-05-16T14:38:48;15.80;99.90
23683;DHT22;24897;53.514;10.482;2023-05-16T14:41:33;15.50;99.90
23683;DHT22;24897;53.514;10.482;2023-05-16T14:44:17;14.70;99.90
23683;DHT22;24897;53.514;10.482;2023-05-16T14:47:03;14.50;99.90
23683;DHT22;24897;53.514;10.482;2023-05-16T14:49:47;14.40;99.90
23683;DHT22;24897;53.514;10.482;2023-05-16T14:52:32;14.60;99.90
23683;DHT22;24897;53.514;10.482;2023-05-16T14:55:16;14.60;99.90
23683;DHT22;24897;53.514;10.482;2023-05-16T14:58:00;14.60;99.90
23683;DHT22;24897;53.514;10.482;2023-05-16T15:00:44;14.80;99.90
23683;DHT22;24897;53.514;10.482;2023-05-16T15:03:28;14.70;99.90
23683;DHT22;24897;53.514;10.482;2023-05-16T15:06:14;14.50;99.90
23683;DHT22;24897;53.514;10.482;2023-05-16T15:08:58;14.40;99.90
23683;DHT22;24897;53.514;10.482;2023-05-16T15:11:43;14.70;99.90
23683;DHT22;24897;53.514;10.482;2023-05-16T15:14:26;14.90;99.90
23683;DHT22;24897;53.514;10.482;2023-05-16T15:17:11;15.00;99.90
23683;DHT22;24897;53.514;10.482;2023-05-16T15:19:55;14.90;99.90
23683;DHT22;24897;53.514;10.482;2023-05-16T15:22:40;15.00;99.90
23683;DHT22;24897;53.514;10.482;2023-05-16T15:25:24;15.10;99.90
23683;DHT22;24897;53.514;10.482;2023-05-16T15:28:08;15.00;99.90
23683;DHT22;24897;53.514;10.482;2023-05-16T15:30:52;14.90;99.90
23683;DHT22;24897;53.514;10.482;2023-05-16T15:33:39;14.80;99.90
23683;DHT22;24897;53.514;10.482;2023-05-16T15:36:24;14.80;99.90
23683;DHT22;24897;53.514;10.482;2023-05-16T15:39:08;14.70;99.90
23683;DHT22;24897;53.514;10.482;2023-05-16T15:41:53;14.90;99.90
23683;DHT22;24897;53.514;10.482;2023-05-16T15:44:38;15.10;99.90
23683;DHT22;24897;53.514;10.482;2023-05-16T15:47:22;15.00;99.90
23683;DHT22;24897;53.514;10.482;2023-05-16T15:50:07;15.00;99.90
23683;DHT22;24897;53.514;10.482;2023-05-16T15:52:51;15.00;99.90
23683;DHT22;24897;53.514;10.482;2023-05-16T15:55:36;14.30;99.90
23683;DHT22;24897;53.514;10.482;2023-05-16T15:58:21;14.00;99.90
23683;DHT22;24897;53.514;10.482;2023-05-16T16:01:06;13.80;99.90
23683;DHT22;24897;53.514;10.482;2023-05-16T16:03:50;13.60;99.90
23683;DHT22;24897;53.514;10.482;2023-05-16T16:06:34;13.50;99.90
23683;DHT22;24897;53.514;10.482;2023-05-16T16:09:18;13.40;99.90
23683;DHT22;24897;53.514;10.482;2023-05-16T16:12:02;13.40;99.90
23683;DHT22;24897;53.514;10.482;2023-05-16T16:14:47;13.50;99.90
23683;DHT22;24897;53.514;10.482;2023-05-16T16:17:32;13.30;99.90
23683;DHT22;24897;53.514;10.482;2023-05-16T16:20:16;13.30;99.90
23683;DHT22;24897;53.514;10.482;2023-05-16T16:23:00;13.30;99.90
23683;DHT22;24897;53.514;10.482;2023-05-16T16:25:44;13.10;99.90
23683;DHT22;24897;53.514;10.482;2023-05-16T16:28:28;12.90;99.90
23683;DHT22;24897;53.514;10.482;2023-05-16T16:31:12;12.80;99.90
23683;DHT22;24897;53.514;10.482;2023-05-16T16:33:57;12.70;99.90
23683;DHT22;24897;53.514;10.482;2023-05-16T16:36:41;12.60;99.90
23683;DHT22;24897;53.514;10.482;2023-05-16T16:39:25;12.70;99.90
23683;DHT22;24897;53.514;10.482;2023-05-16T16:42:09;12.90;99.90
23683;DHT22;24897;53.514;10.482;2023-05-16T16:44:54;12.90;99.90
23683;DHT22;24897;53.514;10.482;2023-05-16T16:47:38;13.00;99.90
23683;DHT22;24897;53.514;10.482;2023-05-16T16:50:23;13.00;99.90
23683;DHT22;24897;53.514;10.482;2023-05-16T16:53:07;12.90;99.90
23683;DHT22;24897;53.514;10.482;2023-05-16T16:55:52;13.10;99.90
23683;DHT22;24897;53.514;10.482;2023-05-16T16:58:36;13.20;99.90
23683;DHT22;24897;53.514;10.482;2023-05-16T17:01:21;13.40;99.90
23683;DHT22;24897;53.514;10.482;2023-05-16T17:04:05;13.30;99.90
23683;DHT22;24897;53.514;10.482;2023-05-16T17:06:50;13.30;99.90
23683;DHT22;24897;53.514;10.482;2023-05-16T17:09:34;13.30;99.90
23683;DHT22;24897;53.514;10.482;2023-05-16T17:12:19;13.20;99.90
23683;DHT22;24897;53.514;10.482;2023-05-16T17:15:05;12.90;99.90
23683;DHT22;24897;53.514;10.482;2023-05-16T17:17:50;12.80;99.90